Home > Products > Valid Products > TAF

000
FTUS41 KBOX 290048 AAA
TAFBOS
TAF AMD
KBOS 290048Z 2901/3006 18015KT P6SM BKN130
     FM290700 08004KT P6SM BKN200
     FM291500 10008KT P6SM BKN140
     FM300200 14006KT P6SM SCT150=



000
FTUS41 KBOX 290048 AAA
TAFBOS
TAF AMD
KBOS 290048Z 2901/3006 18015KT P6SM BKN130
     FM290700 08004KT P6SM BKN200
     FM291500 10008KT P6SM BKN140
     FM300200 14006KT P6SM SCT150=



000
FTUS41 KBOX 282320
TAFBOS
TAF
KBOS 282320Z 2900/3006 15010KT P6SM BKN130
     FM290700 08004KT P6SM BKN200
     FM291500 10008KT P6SM BKN140
     FM300200 14006KT P6SM SCT150=



000
FTUS41 KBOX 282320
TAFBDL
TAF
KBDL 282320Z 2900/3006 19013KT P6SM BKN100
     FM290400 VRB03KT P6SM BKN100=



000
FTUS41 KBOX 282320
TAFACK
TAF
KACK 282320Z 2900/2924 13011KT P6SM SCT110
     FM290800 07009KT P6SM OVC090
     FM291400 07013KT P6SM BKN150=



000
FTUS41 KBOX 282320
TAFPVD
TAF
KPVD 282320Z 2900/2924 18009KT P6SM SCT120
     FM290500 VRB03KT P6SM OVC090
     FM291800 12006KT P6SM SCT120=



000
FTUS41 KBOX 282320
TAFBAF
TAF
KBAF 282320Z 2900/2924 17008KT P6SM SCT100
     FM290300 00000KT P6SM BKN150=



000
FTUS41 KBOX 282320
TAFORH
TAF
KORH 282320Z 2900/2924 18014KT P6SM SCT150
     FM290300 00000KT P6SM BKN150
     FM291500 10005KT P6SM SCT110
     FM291600 10004KT P6SM BKN100=



000
FTUS41 KBOX 282026 AAA
TAFACK
TAF AMD
KACK 282026Z 2820/2918 12011KT P6SM OVC150
     FM290800 07009KT P6SM OVC090
     FM291400 07013KT P6SM BKN150=



000
FTUS41 KBOX 282026 AAA
TAFBAF
TAF AMD
KBAF 282026Z 2820/2918 VRB05KT P6SM FEW200
     FM290800 00000KT P6SM OVC100=



000
FTUS41 KBOX 282026 AAA
TAFORH
TAF AMD
KORH 282026Z 2820/2918 VRB06KT P6SM FEW200
     FM290900 VRB05KT P6SM BKN100
     FM291300 07004KT P6SM SCT140
     FM291600 10004KT P6SM BKN100=



000
FTUS41 KBOX 282026 AAA
TAFBDL
TAF AMD
KBDL 282026Z 2820/2924 15007KT P6SM FEW200
     FM290000 19007KT P6SM OVC140
     FM290400 VRB03KT P6SM BKN100=



000
FTUS41 KBOX 282026 AAA
TAFBOS
TAF AMD
KBOS 282026Z 2820/2924 11012KT P6SM BKN200
     FM290000 15006KT P6SM BKN200
     FM290700 08004KT P6SM BKN200
     FM291500 10008KT P6SM BKN140=



000
FTUS41 KBOX 282026 AAA
TAFPVD
TAF AMD
KPVD 282026Z 2820/2918 17011KT P6SM BKN200
     FM290300 15006KT P6SM OVC100
     FM291000 05004KT P6SM OVC100
     FM291700 12006KT P6SM BKN130=



000
FTUS41 KBOX 281727
TAFBDL
TAF
KBDL 281727Z 2818/2924 VRB05KT P6SM FEW200
     FM290000 19007KT P6SM OVC140
     FM290400 VRB03KT P6SM BKN100=



000
FTUS41 KBOX 281727
TAFACK
TAF
KACK 281727Z 2818/2918 07011KT P6SM SKC
     FM282300 11008KT P6SM OVC150
     FM290800 07009KT P6SM OVC090
     FM291400 07013KT P6SM BKN150=



000
FTUS41 KBOX 281727
TAFBAF
TAF
KBAF 281727Z 2818/2918 VRB05KT P6SM FEW200
     FM290800 00000KT P6SM OVC100=



000
FTUS41 KBOX 281727
TAFPVD
TAF
KPVD 281727Z 2818/2918 11004KT P6SM FEW200
     FM282100 17008KT P6SM BKN200
     FM290300 15004KT P6SM OVC100
     FM291000 05004KT P6SM OVC100
     FM291700 12006KT P6SM BKN130=



000
FTUS41 KBOX 281727
TAFORH
TAF
KORH 281727Z 2818/2918 30006KT P6SM FEW200
     FM290900 VRB05KT P6SM BKN100
     FM291300 07004KT P6SM SCT140
     FM291600 10004KT P6SM BKN100=



000
FTUS41 KBOX 281727
TAFBOS
TAF
KBOS 281727Z 2818/2924 11012KT P6SM SKC
     FM282100 11009KT P6SM BKN200
     FM290000 15006KT P6SM BKN200
     FM290700 08004KT P6SM BKN200
     FM291500 10008KT P6SM BKN140=



000
FTUS41 KBOX 281506 AAA
TAFBOS
TAF AMD
KBOS 281506Z 2815/2918 34006KT P6SM SKC
     FM281600 10009KT P6SM FEW200
     FM282300 14008KT P6SM SCT150
     FM290500 10004KT P6SM BKN150
     FM291100 06008KT P6SM BKN130
     FM291700 10009KT P6SM SCT120=



000
FTUS41 KBOX 281506 AAA
TAFBAF
TAF AMD
KBAF 281506Z 2815/2912 VRB06KT P6SM SCT250
     FM290600 00000KT P6SM BKN110=



000
FTUS41 KBOX 281506 AAA
TAFBDL
TAF AMD
KBDL 281506Z 2815/2918 36007KT P6SM SCT250
     FM282000 17004KT P6SM BKN140
     FM290600 00000KT P6SM BKN090=



000
FTUS41 KBOX 281506 AAA
TAFPVD
TAF AMD
KPVD 281506Z 2815/2912 34009KT P6SM SKC
     FM281700 09007KT P6SM SCT200
     FM282000 12009KT P6SM BKN150
     FM290200 14005KT P6SM BKN130
     FM290700 08004KT P6SM BKN100=



000
FTUS41 KBOX 281506 AAA
TAFORH
TAF AMD
KORH 281506Z 2815/2912 35005KT P6SM SCT250
     FM281800 28005KT P6SM BKN250
     FM282200 21006KT P6SM BKN150
     FM290200 VRB03KT P6SM BKN150=



000
FTUS41 KBOX 281506 AAA
TAFACK
TAF AMD
KACK 281506Z 2815/2912 03010KT P6SM SKC
     FM281800 10009KT P6SM SCT150
     FM290000 12008KT P6SM BKN100
     FM290800 08009KT P6SM BKN070=



000
FTUS41 KBOX 281120
TAFORH
TAF
KORH 281120Z 2812/2912 35005KT P6SM SCT250
     FM281800 28005KT P6SM BKN250
     FM282200 21006KT P6SM BKN150
     FM290200 VRB03KT P6SM BKN150=



000
FTUS41 KBOX 281120
TAFBDL
TAF
KBDL 281120Z 2812/2918 36005KT P6SM SCT250
     FM282000 17004KT P6SM BKN140
     FM290600 00000KT P6SM BKN090=



000
FTUS41 KBOX 281120
TAFBOS
TAF
KBOS 281120Z 2812/2918 34006KT P6SM SKC
     FM281700 10009KT P6SM FEW200
     FM282300 14008KT P6SM SCT150
     FM290500 10004KT P6SM BKN150
     FM291100 06008KT P6SM BKN130
     FM291700 10009KT P6SM SCT120=



000
FTUS41 KBOX 281120
TAFBAF
TAF
KBAF 281120Z 2812/2912 VRB03KT P6SM SCT250
     FM290600 00000KT P6SM BKN110=



000
FTUS41 KBOX 281120
TAFACK
TAF
KACK 281120Z 2812/2912 04010KT P6SM SKC
     FM281800 13006KT P6SM SCT150
     FM290000 12008KT P6SM BKN100
     FM290800 08009KT P6SM BKN070=



000
FTUS41 KBOX 281120
TAFPVD
TAF
KPVD 281120Z 2812/2912 34005KT P6SM SKC
     FM281700 17005KT P6SM SCT200
     FM282100 18009KT P6SM BKN150
     FM290200 14005KT P6SM BKN130
     FM290700 08004KT P6SM BKN100=



000
FTUS41 KBOX 280844 AAA
TAFACK
TAF AMD
KACK 280844Z 2809/2906 02013KT P6SM SKC
     FM281400 06010KT P6SM FEW250
     FM281900 10009KT P6SM SCT150
     FM290000 12008KT P6SM BKN100=



000
FTUS41 KBOX 280843 AAA
TAFPVD
TAF AMD
KPVD 280843Z 2809/2906 36005KT P6SM FEW250
     FM281700 13006KT P6SM SCT200
     FM282000 17009KT P6SM SCT150
     FM290200 14005KT P6SM BKN130=



000
FTUS41 KBOX 280843 AAA
TAFBDL
TAF AMD
KBDL 280843Z 2809/2912 33008KT P6SM FEW250
     FM282000 19004KT P6SM BKN150
     FM290600 00000KT P6SM BKN090=



000
FTUS41 KBOX 280843 AAA
TAFPVD
TAF AMD
KPVD 280843Z 2809/2906 36005KT P6SM FEW250
     FM281700 13006KT P6SM SCT200
     FM282000 17009KT P6SM SCT150
     FM290200 14005KT P6SM BKN130=



000
FTUS41 KBOX 280842 AAA
TAFBOS
TAF AMD
KBOS 280842Z 2809/2912 35007KT P6SM FEW250
     FM281700 08006KT P6SM FEW250
     FM282000 12009KT P6SM SCT200
     FM290200 16006KT P6SM BKN150
     FM290500 10004KT P6SM BKN150
     FM291100 06008KT P6SM BKN130=



000
FTUS41 KBOX 280527
TAFACK
TAF
KACK 280527Z 2806/2906 27011KT P6SM SKC
     FM280800 34011G19KT P6SM SKC
     FM280900 02013G20KT P6SM SKC
     FM281400 06010KT P6SM FEW250
     FM281900 10009KT P6SM SCT150
     FM290000 12008KT P6SM BKN100=



000
FTUS41 KBOX 280527
TAFBOS
TAF
KBOS 280527Z 2806/2912 35007KT P6SM FEW250
     FM281700 08006KT P6SM FEW250
     FM282000 12009KT P6SM SCT200
     FM290200 16006KT P6SM BKN150
     FM290500 10004KT P6SM BKN150
     FM291100 06008KT P6SM BKN130=



000
FTUS41 KBOX 280527
TAFORH
TAF
KORH 280527Z 2806/2906 34010KT P6SM FEW250
     FM281600 30006KT P6SM FEW250
     FM282100 26006KT P6SM SCT150
     FM282300 20005KT P6SM BKN150
     FM290200 00000KT P6SM BKN150=



000
FTUS41 KBOX 280527
TAFPVD
TAF
KPVD 280527Z 2806/2906 27005KT P6SM FEW250
     FM280800 36005KT P6SM FEW250
     FM281700 13006KT P6SM SCT200
     FM282000 17009KT P6SM SCT150
     FM290200 14005KT P6SM BKN130=



000
FTUS41 KBOX 280527
TAFBAF
TAF
KBAF 280527Z 2806/2906 32005KT P6SM FEW250
     FM282000 27004KT P6SM SCT150
     FM290200 00000KT P6SM BKN130=



000
FTUS41 KBOX 280527
TAFBDL
TAF
KBDL 280527Z 2806/2912 33008KT P6SM FEW250
     FM282000 19004KT P6SM BKN150
     FM290600 00000KT P6SM BKN090=



000
FTUS41 KBOX 272320
TAFBAF
TAF
KBAF 272320Z 2800/2824 26005KT P6SM SKC
     FM280200 34005KT P6SM SKC
     FM280800 00000KT P6SM SKC=



000
FTUS41 KBOX 272320
TAFORH
TAF
KORH 272320Z 2800/2824 28012KT P6SM SKC
     FM280600 34005KT P6SM SKC
     FM282000 24004KT P6SM SCT150
     FM282200 00000KT P6SM BKN150=



000
FTUS41 KBOX 272320
TAFPVD
TAF
KPVD 272320Z 2800/2824 22009KT P6SM SKC
     FM280300 26006KT P6SM FEW250
     FM280700 32005KT P6SM FEW250
     FM281400 02006KT P6SM SKC
     FM281700 11006KT P6SM FEW150
     FM282000 16008KT P6SM SCT150=



000
FTUS41 KBOX 272320
TAFACK
TAF
KACK 272320Z 2800/2824 22010KT P6SM SKC
     FM280500 26010KT P6SM FEW250
     FM280700 30009KT P6SM FEW250
     FM280800 34009KT P6SM FEW250
     FM281100 02010KT P6SM SKC
     FM281800 06010KT P6SM FEW200
     FM282300 10008KT P6SM BKN140=



000
FTUS41 KBOX 272320
TAFBDL
TAF
KBDL 272320Z 2800/2906 26010KT P6SM SKC
     FM280200 29004KT P6SM SKC
     FM281700 00000KT P6SM FEW150
     FM282100 18006KT P6SM BKN140
     FM290500 00000KT P6SM OVC100=



000
FTUS41 KBOX 272320
TAFBOS
TAF
KBOS 272320Z 2800/2906 22010KT P6SM SKC
     FM280300 28007KT P6SM FEW250
     FM280500 33006KT P6SM FEW250
     FM281600 03007KT P6SM FEW250
     FM281700 09007KT P6SM FEW200
     FM282100 13010KT P6SM SCT150
     FM290200 17007KT P6SM BKN200=



000
FTUS41 KBOX 272253 AAC
TAFPVD
TAF AMD
KPVD 272253Z 2723/2818 22012KT P6SM SKC
     FM280500 29005KT P6SM FEW250
     FM281000 35005KT P6SM SKC
     FM281600 11006KT P6SM FEW150=



000
FTUS41 KBOX 272253 AAD
TAFBOS
TAF AMD
KBOS 272253Z 2723/2824 20012KT P6SM SCT200
     FM280500 31008KT P6SM FEW250
     FM281300 35007KT P6SM FEW250
     FM281500 09007KT P6SM FEW200=



000
FTUS41 KBOX 272253 AAD
TAFBOS
TAF AMD
KBOS 272253Z 2723/2824 20012KT P6SM SCT200
     FM280500 31008KT P6SM FEW250
     FM281300 35007KT P6SM FEW250
     FM281500 09007KT P6SM FEW200=



000
FTUS41 KBOX 272130 AAC
TAFBOS
TAF AMD
KBOS 272130Z 2722/2824 27012KT P6SM FEW050 SCT200
     FM280000 22008KT P6SM SKC
     FM280500 31008KT P6SM FEW250
     FM281300 35007KT P6SM FEW250
     FM281500 09007KT P6SM FEW200=



000
FTUS41 KBOX 272106 AAB
TAFBAF
TAF AMD
KBAF 272106Z 2721/2818 29010KT P6SM SKC
     FM280500 00000KT P6SM FEW250=



000
FTUS41 KBOX 272106 AAB
TAFBOS
TAF AMD
KBOS 272106Z 2721/2824 11010KT P6SM FEW050 SCT200
     FM272130 17008KT P6SM SKC
     FM280000 22008KT P6SM SKC
     FM280500 31008KT P6SM FEW250
     FM281300 35007KT P6SM FEW250
     FM281500 09007KT P6SM FEW200=



000
FTUS41 KBOX 272106 AAA
TAFORH
TAF AMD
KORH 272106Z 2721/2818 24010G18KT P6SM SKC
     FM272300 27008KT P6SM SKC
     FM281000 33006KT P6SM SKC=



000
FTUS41 KBOX 272106 AAB
TAFBDL
TAF AMD
KBDL 272106Z 2721/2824 26009KT P6SM SCT250
     FM272300 22006KT P6SM SKC
     FM280400 28004KT P6SM FEW250
     FM281700 00000KT P6SM FEW150
     FM282100 18006KT P6SM BKN140=



000
FTUS41 KBOX 272106 AAB
TAFPVD
TAF AMD
KPVD 272106Z 2721/2818 19015KT P6SM FEW030 FEW250
     FM280500 29005KT P6SM FEW250
     FM281000 35005KT P6SM SKC
     FM281600 11006KT P6SM FEW150=



000
FTUS41 KBOX 272106 AAA
TAFACK
TAF AMD
KACK 272106Z 2721/2818 21011KT P6SM SKC
     FM280500 26007KT P6SM FEW250
     FM280800 34008KT P6SM FEW250
     FM281100 02010KT P6SM SKC=



000
FTUS41 KBOX 271955 AAA
TAFPVD
TAF AMD
KPVD 271955Z 2720/2818 16010KT P6SM SKC
     FM280500 29005KT P6SM FEW250
     FM281000 35005KT P6SM SKC
     FM281600 11006KT P6SM FEW150=



000
FTUS41 KBOX 271955 AAA
TAFBDL
TAF AMD
KBDL 271955Z 2720/2824 21008KT P6SM SKC
     FM272300 22006KT P6SM SKC
     FM280400 28004KT P6SM FEW250
     FM281700 00000KT P6SM FEW150
     FM282100 18006KT P6SM BKN140=



000
FTUS41 KBOX 271955 AAA
TAFBAF
TAF AMD
KBAF 271955Z 2720/2818 30008KT P6SM SKC
     FM280500 00000KT P6SM FEW250=



000
FTUS41 KBOX 271955 AAA
TAFBDL
TAF AMD
KBDL 271955Z 2720/2824 21008KT P6SM SKC
     FM272300 22006KT P6SM SKC
     FM280400 28004KT P6SM FEW250
     FM281700 00000KT P6SM FEW150
     FM282100 18006KT P6SM BKN140=



000
FTUS41 KBOX 271917 AAA
TAFBOS
TAF AMD
KBOS 271917Z 2719/2824 12010KT P6SM SKC
     FM272130 17008KT P6SM SKC
     FM280000 22008KT P6SM SKC
     FM280500 31008KT P6SM FEW250
     FM281300 35007KT P6SM FEW250
     FM281500 09007KT P6SM FEW200=



000
FTUS41 KBOX 271721
TAFBDL
TAF
KBDL 271721Z 2718/2824 36005KT P6SM SKC
     FM272300 22006KT P6SM SKC
     FM280400 28004KT P6SM FEW250
     FM281700 00000KT P6SM FEW150
     FM282100 18006KT P6SM BKN140=



000
FTUS41 KBOX 271721
TAFPVD
TAF
KPVD 271721Z 2718/2818 15005KT P6SM SKC
     FM280500 29005KT P6SM FEW250
     FM281000 35005KT P6SM SKC
     FM281600 11006KT P6SM FEW150=



000
FTUS41 KBOX 271721
TAFBAF
TAF
KBAF 271721Z 2718/2818 33006KT P6SM SKC
     FM280500 00000KT P6SM FEW250=



000
FTUS41 KBOX 271721
TAFORH
TAF
KORH 271721Z 2718/2818 27008KT P6SM SKC
     FM281000 33006KT P6SM SKC=



000
FTUS41 KBOX 271721
TAFBOS
TAF
KBOS 271721Z 2718/2824 16008KT P6SM SKC
     FM272100 17008KT P6SM SKC
     FM280000 22008KT P6SM SKC
     FM280500 31008KT P6SM FEW250
     FM281300 35007KT P6SM FEW250
     FM281500 09007KT P6SM FEW200=



000
FTUS41 KBOX 271721
TAFACK
TAF
KACK 271721Z 2718/2818 20010KT P6SM SKC
     FM280000 20009KT P6SM SKC
     FM280500 26007KT P6SM FEW250
     FM280800 34008KT P6SM FEW250
     FM281100 02010KT P6SM SKC=



000
FTUS41 KBOX 271511 AAA
TAFPVD
TAF AMD
KPVD 271511Z 2715/2812 26005KT P6SM FEW250
     FM271700 23005KT P6SM SCT250
     FM271800 20007KT P6SM SCT050
     FM272200 21009KT P6SM FEW250
     FM280300 25005KT P6SM FEW250
     FM280600 31004KT P6SM FEW250=



000
FTUS41 KBOX 271509 AAA
TAFBDL
TAF AMD
KBDL 271509Z 2715/2818 36005KT P6SM SCT250
     FM271800 28005KT P6SM SKC
     FM280800 00000KT P6SM FEW250=



000
FTUS41 KBOX 271509 AAA
TAFBOS
TAF AMD
KBOS 271509Z 2715/2818 32005KT P6SM BKN250
     FM271700 15008KT P6SM SCT050
     FM280100 22008KT P6SM FEW250
     FM280300 27006KT P6SM FEW250
     FM280600 31007KT P6SM SKC=



000
FTUS41 KBOX 271120
TAFPVD
TAF
KPVD 271120Z 2712/2812 26005KT P6SM FEW250
     FM271700 23005KT P6SM SCT250
     FM271800 20007KT P6SM SCT050
     FM272200 21009KT P6SM FEW250
     FM280300 25005KT P6SM FEW250
     FM280600 31004KT P6SM FEW250=



000
FTUS41 KBOX 271120
TAFACK
TAF
KACK 271120Z 2712/2812 00000KT P6SM SCT015
     FM271300 VRB04KT P6SM SCT015
     FM271600 VRB03KT P6SM FEW250
     FM271900 21007KT P6SM SKC
     FM280500 25007KT P6SM FEW250
     FM280800 32008KT P6SM FEW250=



000
FTUS41 KBOX 271120
TAFBAF
TAF
KBAF 271120Z 2712/2812 34004KT P6SM SKC
     FM272000 30008KT P6SM SKC
     FM280000 26006KT P6SM SKC
     FM280800 00000KT P6SM FEW250=



000
FTUS41 KBOX 271120
TAFORH
TAF
KORH 271120Z 2712/2812 32006KT P6SM SKC
     FM271700 28006KT P6SM SCT050
     FM272200 27008KT P6SM FEW250
     FM281100 31006KT P6SM FEW250=



000
FTUS41 KBOX 271120
TAFBDL
TAF
KBDL 271120Z 2712/2818 35008KT P6SM SCT250
     FM271800 28005KT P6SM SKC
     FM280800 00000KT P6SM FEW250=



000
FTUS41 KBOX 271120
TAFBAF
TAF
KBAF 271120Z 2712/2812 34004KT P6SM SKC
     FM272000 30008KT P6SM SKC
     FM280000 26006KT P6SM SKC
     FM280800 00000KT P6SM FEW250=



000
FTUS41 KBOX 271120
TAFPVD
TAF
KPVD 271120Z 2712/2812 26005KT P6SM FEW250
     FM271700 23005KT P6SM SCT250
     FM271800 20007KT P6SM SCT050
     FM272200 21009KT P6SM FEW250
     FM280300 25005KT P6SM FEW250
     FM280600 31004KT P6SM FEW250=



000
FTUS41 KBOX 271120
TAFBOS
TAF
KBOS 271120Z 2712/2818 32007KT P6SM BKN250
     FM271600 25005KT P6SM SCT250
     FM271800 17008KT P6SM SCT050
     FM280100 22008KT P6SM FEW250
     FM280300 27006KT P6SM FEW250
     FM280600 31007KT P6SM SKC=



000
FTUS41 KBOX 271120
TAFBDL
TAF
KBDL 271120Z 2712/2818 35008KT P6SM SCT250
     FM271800 28005KT P6SM SKC
     FM280800 00000KT P6SM FEW250=



000
FTUS41 KBOX 271120
TAFACK
TAF
KACK 271120Z 2712/2812 00000KT P6SM SCT015
     FM271300 VRB04KT P6SM SCT015
     FM271600 VRB03KT P6SM FEW250
     FM271900 21007KT P6SM SKC
     FM280500 25007KT P6SM FEW250
     FM280800 32008KT P6SM FEW250=



000
FTUS41 KBOX 271120
TAFORH
TAF
KORH 271120Z 2712/2812 32006KT P6SM SKC
     FM271700 28006KT P6SM SCT050
     FM272200 27008KT P6SM FEW250
     FM281100 31006KT P6SM FEW250=



000
FTUS41 KBOX 270809 AAA
TAFBAF
TAF AMD
KBAF 270809Z 2708/2806 00000KT 1/2SM FG OVC002
     FM271000 00000KT P6SM SKC
     FM271700 32006KT P6SM FEW250
     FM272300 27007KT P6SM SKC
     FM280300 VRB03KT P6SM FEW250=



000
FTUS41 KBOX 270808 AAA
TAFORH
TAF AMD
KORH 270808Z 2708/2806 28008KT 1/2SM FG OVC002
     FM271100 29007KT P6SM SKC
     FM271600 29007KT P6SM SCT050
     FM272200 27008KT P6SM FEW250=



000
FTUS41 KBOX 270805 AAA
TAFPVD
TAF AMD
KPVD 270805Z 2708/2806 33004KT P6SM SCT250
     FM271600 31004KT P6SM SCT050
     FM271800 19009KT P6SM SCT050
     FM272200 21009KT P6SM FEW250
     FM280300 25005KT P6SM FEW250=



000
FTUS41 KBOX 270805 AAA
TAFPVD
TAF AMD
KPVD 270805Z 2708/2806 33004KT P6SM SCT250
     FM271600 31004KT P6SM SCT050
     FM271800 19009KT P6SM SCT050
     FM272200 21009KT P6SM FEW250
     FM280300 25005KT P6SM FEW250=



000
FTUS41 KBOX 270805 AAA
TAFBDL
TAF AMD
KBDL 270805Z 2708/2812 VRB03KT P6SM SCT250
     FM271800 26008KT P6SM SCT250
     FM280000 23008KT P6SM FEW250
     FM280300 29004KT P6SM FEW250
     FM280800 00000KT P6SM FEW250=



000
FTUS41 KBOX 270803 AAA
TAFBOS
TAF AMD
KBOS 270803Z 2708/2812 25005KT P6SM SKC
     FM271600 16009KT P6SM SCT050
     FM272200 18010KT P6SM FEW250
     FM280300 27006KT P6SM FEW250
     FM280600 31007KT P6SM SKC=



000
FTUS41 KBOX 270524
TAFBDL
TAF
KBDL 270524Z 2706/2812 00000KT P6SM BKN035
     FM270800 VRB03KT P6SM SCT250
     FM272100 27007KT P6SM SKC
     FM280000 23008KT P6SM FEW250
     FM280300 29004KT P6SM FEW250
     FM280800 00000KT P6SM FEW250=



000
FTUS41 KBOX 270524
TAFPVD
TAF
KPVD 270524Z 2706/2806 35004KT P6SM BKN010
     FM270700 33004KT P6SM SCT250
     FM271600 31004KT P6SM SCT050
     FM271800 19009KT P6SM SCT050
     FM272200 21009KT P6SM FEW250
     FM280300 25005KT P6SM FEW250=



000
FTUS41 KBOX 270524
TAFBOS
TAF
KBOS 270524Z 2706/2812 29005KT P6SM SCT025
     FM270700 28005KT P6SM SCT250
     FM271600 16009KT P6SM SCT050
     FM272200 18010KT P6SM FEW250
     FM280300 27006KT P6SM FEW250
     FM280600 31007KT P6SM SKC=



000
FTUS41 KBOX 270524
TAFORH
TAF
KORH 270524Z 2706/2806 30004KT P6SM BKN015
     FM270700 30004KT P6SM SCT250
     FM271600 29006KT P6SM SCT050
     FM272200 27008KT P6SM FEW250=



000
FTUS41 KBOX 270524
TAFACK
TAF
KACK 270524Z 2706/2806 01009KT P6SM BKN015
     FM271000 36006KT P6SM SCT250
     FM271400 28004KT P6SM SCT250
     FM271800 21006KT P6SM SKC
     FM280500 25007KT P6SM FEW250=



000
FTUS41 KBOX 270524
TAFBAF
TAF
KBAF 270524Z 2706/2806 00000KT P6SM BKN025
     FM270700 00000KT P6SM SCT250
     FM271700 32006KT P6SM FEW250
     FM272300 27007KT P6SM SKC
     FM280300 VRB03KT P6SM FEW250=



000
FTUS41 KBOX 270317 AAA
TAFBOS
TAF AMD
KBOS 270317Z 2703/2806 33005KT P6SM OVC015
     FM270500 28005KT P6SM SCT250
     FM271900 00000KT P6SM FEW250
     FM280500 33006KT P6SM FEW250=



000
FTUS41 KBOX 270314 AAA
TAFORH
TAF AMD
KORH 270314Z 2703/2724 02004KT P6SM OVC007
     FM270500 VRB03KT P6SM BKN015
     FM270600 30004KT P6SM SCT250
     FM271100 32005KT P6SM FEW250=



000
FTUS41 KBOX 270314 AAA
TAFORH
TAF AMD
KORH 270314Z 2703/2724 02004KT P6SM OVC007
     FM270500 VRB03KT P6SM BKN015
     FM270600 30004KT P6SM SCT250
     FM271100 32005KT P6SM FEW250=



000
FTUS41 KBOX 262339
TAFORH
TAF
KORH 262339Z 2700/2724 02004KT P6SM BKN009 OVC013
     FM270300 VRB03KT P6SM BKN090
     FM270600 30004KT P6SM SCT250
     FM271100 32005KT P6SM FEW250=



000
FTUS41 KBOX 262339
TAFPVD
TAF
KPVD 262339Z 2700/2724 02013KT P6SM OVC011
     FM270300 01005KT P6SM BKN015
     FM270600 VRB03KT P6SM SCT090
     FM272300 22007KT P6SM FEW250=



000
FTUS41 KBOX 262339
TAFBAF
TAF
KBAF 262339Z 2700/2724 03005KT P6SM OVC015
     FM270300 VRB03KT P6SM BKN025
     FM270500 00000KT P6SM SCT250
     FM271000 VRB03KT P6SM FEW250=



000
FTUS41 KBOX 262339
TAFBDL
TAF
KBDL 262339Z 2700/2806 03008KT P6SM BKN014 OVC021
     FM270300 36004KT P6SM BKN025
     FM270600 00000KT P6SM SCT150
     FM270900 00000KT P6SM FEW250
     FM271000 VRB03KT P6SM FEW250=



000
FTUS41 KBOX 262339
TAFBOS
TAF
KBOS 262339Z 2700/2806 01010KT P6SM OVC010
     FM270300 33005KT P6SM BKN045
     FM270600 28005KT P6SM SCT250
     FM271900 00000KT P6SM FEW250
     FM280500 33006KT P6SM FEW250=



000
FTUS41 KBOX 262339
TAFACK
TAF
KACK 262339Z 2700/2724 02017G25KT P6SM OVC008
     FM270300 02013KT P6SM OVC015
     FM270700 01009KT P6SM BKN015
     FM271400 31006KT P6SM SCT250
     FM271600 24004KT P6SM FEW250
     FM271800 00000KT P6SM SKC
     FM272100 21006KT P6SM SKC=



000
FTUS41 KBOX 262028 AAA
TAFACK
TAF AMD
KACK 262028Z 2620/2718 02018G25KT P6SM OVC006
     FM262200 04011G21KT 6SM -DZ BR OVC008
     FM270500 01011KT P6SM OVC015
     FM270600 01010KT P6SM BKN250
     FM271100 35007KT P6SM BKN015=



000
FTUS41 KBOX 262027 AAA
TAFPVD
TAF AMD
KPVD 262027Z 2620/2718 02013G17KT 6SM -DZ BR OVC010
     FM270000 36006KT P6SM BKN015 BKN045
     FM270300 VRB03KT P6SM SCT250=



000
FTUS41 KBOX 262027 AAA
TAFPVD
TAF AMD
KPVD 262027Z 2620/2718 02013G17KT 6SM -DZ BR OVC010
     FM270000 36006KT P6SM BKN015 BKN045
     FM270300 VRB03KT P6SM SCT250=



000
FTUS41 KBOX 262026 AAA
TAFORH
TAF AMD
KORH 262026Z 2620/2718 05007G15KT 5SM -DZ BR OVC004
     FM270200 36004KT P6SM SCT010 BKN045
     FM270500 31005KT P6SM SCT150=



000
FTUS41 KBOX 262026 AAA
TAFBAF
TAF AMD
KBAF 262026Z 2620/2718 06005KT P6SM -DZ BKN009 OVC015
     FM270200 VRB03KT P6SM SCT015 BKN025
     FM270400 VRB03KT P6SM BKN200=



000
FTUS41 KBOX 262025 AAA
TAFBDL
TAF AMD
KBDL 262025Z 2620/2724 04009KT P6SM -DZ BKN012 OVC019
     FM270200 00000KT P6SM SCT250=



000
FTUS41 KBOX 262024 AAA
TAFBOS
TAF AMD
KBOS 262024Z 2620/2724 03011G18KT P6SM -DZ BKN010 OVC015
     FM270000 02007KT P6SM BKN008 OVC040
     FM270300 33006KT P6SM BKN200
     FM270600 27005KT P6SM SCT150
     FM271200 33006KT P6SM FEW250=



000
FTUS41 KBOX 261740
TAFBDL
TAF
KBDL 261740Z 2618/2724 04009KT P6SM VCSH SCT012 OVC025
     FM261930 02005KT P6SM BKN020
     FM270500 00000KT P6SM SCT250=



000
FTUS41 KBOX 261740
TAFBAF
TAF
KBAF 261740Z 2618/2718 05006KT 4SM BR VCSH FEW012 BKN020 OVC030
     FM261930 04006KT P6SM OVC015
     FM270200 VRB03KT P6SM BKN025
     FM270400 VRB03KT P6SM BKN200=



000
FTUS41 KBOX 261740
TAFACK
TAF
KACK 261740Z 2618/2718 05008KT 3SM BR VCSH OVC004
     FM262100 04011G21KT P6SM OVC008
     FM270500 01011KT P6SM OVC015
     FM270600 01010KT P6SM BKN250
     FM271100 35007KT P6SM BKN015=



000
FTUS41 KBOX 261740
TAFPVD
TAF
KPVD 261740Z 2618/2718 05011KT 5SM BR VCSH OVC015
     FM262100 36006KT P6SM BKN015 BKN045
     FM270300 VRB03KT P6SM SCT250=



000
FTUS41 KBOX 261740
TAFBDL
TAF
KBDL 261740Z 2618/2724 04009KT P6SM VCSH SCT012 OVC025
     FM261930 02005KT P6SM BKN020
     FM270500 00000KT P6SM SCT250=



000
FTUS41 KBOX 261740
TAFBOS
TAF
KBOS 261740Z 2618/2724 04012KT 3SM RA BR BKN010 OVC015
     FM261830 04011G20KT P6SM VCSH OVC008
     FM270000 02007KT P6SM SCT008 OVC040
     FM270300 33006KT P6SM BKN200
     FM270600 27005KT P6SM SCT150
     FM271200 33006KT P6SM FEW250=



000
FTUS41 KBOX 261740
TAFBAF
TAF
KBAF 261740Z 2618/2718 05006KT 4SM BR VCSH FEW012 BKN020 OVC030
     FM261930 04006KT P6SM OVC015
     FM270200 VRB03KT P6SM BKN025
     FM270400 VRB03KT P6SM BKN200=



000
FTUS41 KBOX 261740
TAFORH
TAF
KORH 261740Z 2618/2718 06008KT P6SM VCSH BKN005 OVC020
     FM262000 05007KT P6SM OVC015
     FM270200 36004KT P6SM BKN045
     FM270500 31005KT P6SM SCT150=



000
FTUS41 KBOX 261740
TAFORH
TAF
KORH 261740Z 2618/2718 06008KT P6SM VCSH BKN005 OVC020
     FM262000 05007KT P6SM OVC015
     FM270200 36004KT P6SM BKN045
     FM270500 31005KT P6SM SCT150=



000
FTUS41 KBOX 261740
TAFACK
TAF
KACK 261740Z 2618/2718 05008KT 3SM BR VCSH OVC004
     FM262100 04011G21KT P6SM OVC008
     FM270500 01011KT P6SM OVC015
     FM270600 01010KT P6SM BKN250
     FM271100 35007KT P6SM BKN015=



000
FTUS41 KBOX 261740
TAFBOS
TAF
KBOS 261740Z 2618/2724 04012KT 3SM RA BR BKN010 OVC015
     FM261830 04011G20KT P6SM VCSH OVC008
     FM270000 02007KT P6SM SCT008 OVC040
     FM270300 33006KT P6SM BKN200
     FM270600 27005KT P6SM SCT150
     FM271200 33006KT P6SM FEW250=



000
FTUS41 KBOX 261740
TAFPVD
TAF
KPVD 261740Z 2618/2718 05011KT 5SM BR VCSH OVC015
     FM262100 36006KT P6SM BKN015 BKN045
     FM270300 VRB03KT P6SM SCT250=



000
FTUS41 KBOX 261505 AAA
TAFACK
TAF AMD
KACK 261505Z 2615/2712 10014KT P6SM SCT008 OVC015
     FM261800 33009KT 5SM -RA BR OVC008
     FM262100 35016KT 2SM BR OVC008
     FM270000 03014KT P6SM OVC008
     FM270800 36008KT P6SM OVC250=



000
FTUS41 KBOX 261459 AAA
TAFBAF
TAF AMD
KBAF 261459Z 2615/2712 36004KT 3SM -RA BR SCT015 OVC025
     FM261900 02006KT P6SM OVC015
     FM270200 36004KT P6SM OVC015
     FM270600 00000KT P6SM SCT150=



000
FTUS41 KBOX 261456 AAA
TAFPVD
TAF AMD
KPVD 261456Z 2615/2712 06008KT P6SM OVC025
     FM261600 03006KT 2SM -RA BR OVC015
     FM262100 02009KT P6SM OVC008
     FM270500 35006KT P6SM BKN250=



000
FTUS41 KBOX 261455 AAA
TAFORH
TAF AMD
KORH 261455Z 2615/2712 08009G17KT P6SM -RA OVC025
     FM261700 03006KT 3SM -RA BR OVC015
     FM262000 03007KT P6SM OVC015
     FM270200 36005KT P6SM OVC015
     FM270400 34005KT P6SM BKN200=



000
FTUS41 KBOX 261455 AAA
TAFORH
TAF AMD
KORH 261455Z 2615/2712 08009G17KT P6SM -RA OVC025
     FM261700 03006KT 3SM -RA BR OVC015
     FM262000 03007KT P6SM OVC015
     FM270200 36005KT P6SM OVC015
     FM270400 34005KT P6SM BKN200=



000
FTUS41 KBOX 261453 AAA
TAFBDL
TAF AMD
KBDL 261453Z 2615/2718 06004KT P6SM -RA OVC025
     FM262000 01007KT P6SM OVC015
     FM270200 36005KT P6SM OVC015
     FM270700 VRB03KT P6SM SCT250=



000
FTUS41 KBOX 261452 AAA
TAFBOS
TAF AMD
KBOS 261452Z 2615/2718 06016G21KT P6SM VCSH SCT015 OVC040
     FM261600 05012KT 2SM -RA BR OVC025
     FM262000 04012KT P6SM OVC015
     FM270200 36009KT P6SM OVC015
     FM270500 32007KT P6SM BKN200=



000
FTUS41 KBOX 261120
TAFACK
TAF
KACK 261120Z 2612/2712 06009KT P6SM -RA OVC050
     FM261500 10012KT 3SM -RA BR OVC008
     FM261800 33009KT 1SM -RA BR OVC008
     FM262100 35016KT 2SM BR OVC008
     FM270000 03014KT P6SM OVC008
     FM270800 36008KT P6SM OVC250=



000
FTUS41 KBOX 261120
TAFBOS
TAF
KBOS 261120Z 2612/2718 07012G20KT P6SM -RA OVC045
     FM261600 05012KT 2SM -RA BR OVC015
     FM262000 04012KT P6SM OVC008
     FM270200 36009KT P6SM OVC015
     FM270500 32007KT P6SM BKN200=



000
FTUS41 KBOX 261120
TAFBAF
TAF
KBAF 261120Z 2612/2712 06007KT P6SM -RA OVC040
     FM261500 03005KT 3SM -RA BR OVC030
     FM261900 02006KT P6SM OVC015
     FM270200 36004KT P6SM OVC015
     FM270600 00000KT P6SM SCT150=



000
FTUS41 KBOX 261120
TAFBOS
TAF
KBOS 261120Z 2612/2718 07012G20KT P6SM -RA OVC045
     FM261600 05012KT 2SM -RA BR OVC015
     FM262000 04012KT P6SM OVC008
     FM270200 36009KT P6SM OVC015
     FM270500 32007KT P6SM BKN200=



000
FTUS41 KBOX 261120
TAFORH
TAF
KORH 261120Z 2612/2712 08010G18KT P6SM -RA OVC035
     FM261500 06005KT 3SM -RA OVC030
     FM261700 03006KT 2SM -RA BR OVC015
     FM262000 03007KT P6SM OVC015
     FM270200 36005KT P6SM OVC015
     FM270400 34005KT P6SM BKN200=



000
FTUS41 KBOX 261120
TAFORH
TAF
KORH 261120Z 2612/2712 08010G18KT P6SM -RA OVC035
     FM261500 06005KT 3SM -RA OVC030
     FM261700 03006KT 2SM -RA BR OVC015
     FM262000 03007KT P6SM OVC015
     FM270200 36005KT P6SM OVC015
     FM270400 34005KT P6SM BKN200=



000
FTUS41 KBOX 261120
TAFPVD
TAF
KPVD 261120Z 2612/2712 06009KT P6SM -RA OVC045
     FM261600 03006KT 2SM -RA BR OVC015
     FM262100 02009KT P6SM OVC008
     FM270500 35006KT P6SM BKN250=



000
FTUS41 KBOX 261120
TAFPVD
TAF
KPVD 261120Z 2612/2712 06009KT P6SM -RA OVC045
     FM261600 03006KT 2SM -RA BR OVC015
     FM262100 02009KT P6SM OVC008
     FM270500 35006KT P6SM BKN250=



000
FTUS41 KBOX 261120
TAFBDL
TAF
KBDL 261120Z 2612/2718 05006KT P6SM -RA OVC040
     FM261500 04005KT 3SM -RA BR OVC020
     FM262000 01007KT P6SM OVC015
     FM270200 36005KT P6SM OVC015
     FM270700 VRB03KT P6SM SCT250=



000
FTUS41 KBOX 261120
TAFBDL
TAF
KBDL 261120Z 2612/2718 05006KT P6SM -RA OVC040
     FM261500 04005KT 3SM -RA BR OVC020
     FM262000 01007KT P6SM OVC015
     FM270200 36005KT P6SM OVC015
     FM270700 VRB03KT P6SM SCT250=



000
FTUS41 KBOX 261120
TAFACK
TAF
KACK 261120Z 2612/2712 06009KT P6SM -RA OVC050
     FM261500 10012KT 3SM -RA BR OVC008
     FM261800 33009KT 1SM -RA BR OVC008
     FM262100 35016KT 2SM BR OVC008
     FM270000 03014KT P6SM OVC008
     FM270800 36008KT P6SM OVC250=



000
FTUS41 KBOX 261120
TAFBAF
TAF
KBAF 261120Z 2612/2712 06007KT P6SM -RA OVC040
     FM261500 03005KT 3SM -RA BR OVC030
     FM261900 02006KT P6SM OVC015
     FM270200 36004KT P6SM OVC015
     FM270600 00000KT P6SM SCT150=



000
FTUS41 KBOX 260821 AAA
TAFBDL
TAF AMD
KBDL 260821Z 2608/2712 02004KT P6SM -RA BKN060
     FM261300 04006KT 6SM -RA OVC040
     FM261500 04005KT 3SM -RA OVC025
     FM261700 02005KT 5SM -RA OVC015
     FM261900 01006KT P6SM OVC015
     FM270700 VRB03KT P6SM SCT250=



000
FTUS41 KBOX 260821 AAA
TAFPVD
TAF AMD
KPVD 260821Z 2608/2706 04005KT P6SM -RA BKN060
     FM261200 05009KT P6SM -RA OVC040
     FM261500 04007KT 3SM -RA OVC015
     FM262000 01008KT P6SM OVC008
     FM270500 35006KT P6SM BKN250=



000
FTUS41 KBOX 260820 AAA
TAFBOS
TAF AMD
KBOS 260820Z 2608/2712 05012G20KT P6SM BKN060
     FM260930 06012KT P6SM VCSH OVC040
     FM261300 06011G18KT P6SM -RA OVC030
     FM261400 06011G18KT 5SM -RA OVC015
     FM262000 04013KT P6SM OVC008
     FM270500 32007KT P6SM BKN200=



000
FTUS41 KBOX 260530
TAFACK
TAF
KACK 260530Z 2606/2706 24005KT P6SM BKN060
     FM260900 10005KT P6SM OVC060
     FM261000 08005KT P6SM VCSH OVC060
     FM261200 09009KT 1SM -RA OVC060
     FM261700 36007KT 1/2SM -RA OVC008
     FM261900 33009KT 1/2SM -RA OVC008
     FM262100 35016KT 1SM -RA OVC008
     FM262200 36015KT P6SM VCSH OVC008=



000
FTUS41 KBOX 260530
TAFBDL
TAF
KBDL 260530Z 2606/2712 VRB03KT P6SM OVC060
     FM260700 02004KT P6SM VCSH BKN060
     FM261300 04006KT 6SM -RA OVC040
     FM261500 04005KT 3SM -RA OVC025
     FM261700 02005KT 5SM -RA OVC015
     FM261900 01006KT P6SM OVC015
     FM270700 VRB03KT P6SM SCT250=



000
FTUS41 KBOX 260530
TAFBAF
TAF
KBAF 260530Z 2606/2706 00000KT P6SM VCSH OVC060
     FM260900 03006KT P6SM -RA BKN040
     FM261400 03006KT 5SM -RA OVC015
     FM261900 02006KT P6SM OVC015=



000
FTUS41 KBOX 260530
TAFPVD
TAF
KPVD 260530Z 2606/2706 VRB03KT P6SM BKN060
     FM260900 04005KT P6SM VCSH BKN060
     FM261200 05009KT P6SM VCSH OVC040
     FM261500 04007KT 3SM -RA OVC015
     FM262000 01008KT P6SM OVC008
     FM270500 35006KT P6SM BKN250=



000
FTUS41 KBOX 260530
TAFBOS
TAF
KBOS 260530Z 2606/2712 05005KT P6SM BKN060
     FM261200 06012KT P6SM VCSH OVC030
     FM261300 06011G18KT P6SM -RA OVC030
     FM261400 06011G18KT 5SM -RA OVC015
     FM262000 04013KT P6SM OVC008
     FM270500 32007KT P6SM BKN200=



000
FTUS41 KBOX 260530
TAFORH
TAF
KORH 260530Z 2606/2706 05004KT P6SM OVC060
     FM260800 05005KT P6SM VCSH OVC050
     FM260900 07007KT P6SM -RA BKN045
     FM261300 07008KT 6SM -RA OVC015
     FM261700 03006KT 3SM -RA OVC015
     FM261900 03007KT P6SM VCSH OVC015
     FM262200 03006KT P6SM OVC015
     FM270400 34005KT P6SM BKN200=



    US Dept of Commerce
    National Oceanic and Atmospheric Administration
    National Weather Service
    1325 East West Highway
    Silver Spring, MD 20910
    Page Author: NWS Internet Services Team
Disclaimer
Information Quality
Credits
Glossary
Privacy Policy
Freedom of Information Act (FOIA)
About Us
Career Opportunities